sensor_id;sensor_type;location;lat;lon;timestamp;P1;durP1;ratioP1;P2;durP2;ratioP2
21860;SDS011;11095;48.066;8.540;2022-12-07T00:01:34;19.75;;;10.43;;
21860;SDS011;11095;48.066;8.540;2022-12-07T00:04:03;23.85;;;11.65;;
21860;SDS011;11095;48.066;8.540;2022-12-07T00:06:30;25.60;;;11.60;;
21860;SDS011;11095;48.066;8.540;2022-12-07T00:08:57;22.75;;;10.82;;
21860;SDS011;11095;48.066;8.540;2022-12-07T00:11:23;22.58;;;10.80;;
21860;SDS011;11095;48.066;8.540;2022-12-07T00:13:53;23.42;;;11.30;;
21860;SDS011;11095;48.066;8.540;2022-12-07T00:16:21;21.20;;;10.00;;
21860;SDS011;11095;48.066;8.540;2022-12-07T00:18:50;20.52;;;9.93;;
21860;SDS011;11095;48.066;8.540;2022-12-07T00:21:19;19.95;;;9.77;;
21860;SDS011;11095;48.066;8.540;2022-12-07T00:23:48;19.13;;;9.57;;
21860;SDS011;11095;48.066;8.540;2022-12-07T00:26:16;18.77;;;9.40;;
21860;SDS011;11095;48.066;8.540;2022-12-07T00:28:47;18.77;;;9.63;;
21860;SDS011;11095;48.066;8.540;2022-12-07T00:31:14;17.50;;;8.93;;
21860;SDS011;11095;48.066;8.540;2022-12-07T00:33:40;20.60;;;9.95;;
21860;SDS011;11095;48.066;8.540;2022-12-07T00:36:08;18.75;;;9.55;;
21860;SDS011;11095;48.066;8.540;2022-12-07T00:38:36;18.83;;;9.65;;
21860;SDS011;11095;48.066;8.540;2022-12-07T00:41:04;19.52;;;9.70;;
21860;SDS011;11095;48.066;8.540;2022-12-07T00:43:31;20.13;;;9.43;;
21860;SDS011;11095;48.066;8.540;2022-12-07T00:45:57;19.33;;;9.98;;
21860;SDS011;11095;48.066;8.540;2022-12-07T00:48:23;21.50;;;10.82;;
21860;SDS011;11095;48.066;8.540;2022-12-07T00:50:49;17.70;;;8.55;;
21860;SDS011;11095;48.066;8.540;2022-12-07T00:53:15;20.58;;;9.40;;
21860;SDS011;11095;48.066;8.540;2022-12-07T00:55:42;21.60;;;9.85;;
21860;SDS011;11095;48.066;8.540;2022-12-07T00:58:07;20.67;;;9.68;;
21860;SDS011;11095;48.066;8.540;2022-12-07T01:00:34;21.08;;;9.48;;
21860;SDS011;11095;48.066;8.540;2022-12-07T01:03:01;23.52;;;9.90;;
21860;SDS011;11095;48.066;8.540;2022-12-07T01:05:26;19.10;;;9.10;;
21860;SDS011;11095;48.066;8.540;2022-12-07T01:07:52;20.15;;;10.02;;
21860;SDS011;11095;48.066;8.540;2022-12-07T01:10:18;19.08;;;8.82;;
21860;SDS011;11095;48.066;8.540;2022-12-07T01:12:43;19.23;;;9.55;;
21860;SDS011;11095;48.066;8.540;2022-12-07T01:15:09;21.83;;;10.07;;
21860;SDS011;11095;48.066;8.540;2022-12-07T01:17:35;22.67;;;9.98;;
21860;SDS011;11095;48.066;8.540;2022-12-07T01:20:01;22.70;;;10.52;;
21860;SDS011;11095;48.066;8.540;2022-12-07T01:22:27;20.40;;;10.27;;
21860;SDS011;11095;48.066;8.540;2022-12-07T01:24:53;23.00;;;9.85;;
21860;SDS011;11095;48.066;8.540;2022-12-07T01:27:19;22.17;;;9.45;;
21860;SDS011;11095;48.066;8.540;2022-12-07T01:29:44;23.60;;;9.95;;
21860;SDS011;11095;48.066;8.540;2022-12-07T01:32:10;22.30;;;10.00;;
21860;SDS011;11095;48.066;8.540;2022-12-07T01:34:36;22.08;;;10.13;;
21860;SDS011;11095;48.066;8.540;2022-12-07T01:37:01;21.23;;;9.98;;
21860;SDS011;11095;48.066;8.540;2022-12-07T01:39:27;22.85;;;10.05;;
21860;SDS011;11095;48.066;8.540;2022-12-07T01:41:53;26.00;;;10.27;;
21860;SDS011;11095;48.066;8.540;2022-12-07T01:44:20;22.80;;;10.40;;
21860;SDS011;11095;48.066;8.540;2022-12-07T01:46:53;25.93;;;10.83;;
21860;SDS011;11095;48.066;8.540;2022-12-07T01:52:28;28.35;;;11.40;;
21860;SDS011;11095;48.066;8.540;2022-12-07T01:54:57;32.13;;;12.05;;
21860;SDS011;11095;48.066;8.540;2022-12-07T01:57:33;28.30;;;11.30;;
21860;SDS011;11095;48.066;8.540;2022-12-07T02:00:03;23.02;;;10.35;;
21860;SDS011;11095;48.066;8.540;2022-12-07T02:02:33;23.63;;;10.68;;
21860;SDS011;11095;48.066;8.540;2022-12-07T02:05:03;27.13;;;10.57;;
21860;SDS011;11095;48.066;8.540;2022-12-07T02:07:30;24.45;;;10.52;;
21860;SDS011;11095;48.066;8.540;2022-12-07T02:12:47;26.10;;;10.45;;
21860;SDS011;11095;48.066;8.540;2022-12-07T02:15:16;23.17;;;10.57;;
21860;SDS011;11095;48.066;8.540;2022-12-07T02:17:51;21.85;;;9.48;;
21860;SDS011;11095;48.066;8.540;2022-12-07T02:23:18;24.92;;;10.65;;
21860;SDS011;11095;48.066;8.540;2022-12-07T02:29:00;25.75;;;10.90;;
21860;SDS011;11095;48.066;8.540;2022-12-07T02:31:32;25.52;;;10.25;;
21860;SDS011;11095;48.066;8.540;2022-12-07T02:34:04;24.88;;;11.15;;
21860;SDS011;11095;48.066;8.540;2022-12-07T02:36:39;27.73;;;11.48;;
21860;SDS011;11095;48.066;8.540;2022-12-07T02:39:09;26.00;;;11.85;;
21860;SDS011;11095;48.066;8.540;2022-12-07T02:41:44;28.00;;;11.80;;
21860;SDS011;11095;48.066;8.540;2022-12-07T02:44:15;27.88;;;12.25;;
21860;SDS011;11095;48.066;8.540;2022-12-07T02:46:59;22.30;;;11.02;;
21860;SDS011;11095;48.066;8.540;2022-12-07T02:49:28;26.48;;;11.50;;
21860;SDS011;11095;48.066;8.540;2022-12-07T02:51:55;24.75;;;11.90;;
21860;SDS011;11095;48.066;8.540;2022-12-07T02:54:20;25.85;;;12.82;;
21860;SDS011;11095;48.066;8.540;2022-12-07T02:56:48;27.80;;;13.38;;
21860;SDS011;11095;48.066;8.540;2022-12-07T03:02:35;28.98;;;13.93;;
21860;SDS011;11095;48.066;8.540;2022-12-07T03:08:02;31.95;;;13.98;;
21860;SDS011;11095;48.066;8.540;2022-12-07T03:10:57;30.52;;;13.23;;
21860;SDS011;11095;48.066;8.540;2022-12-07T03:21:23;17.80;;;10.07;;
21860;SDS011;11095;48.066;8.540;2022-12-07T03:23:53;20.00;;;9.98;;
21860;SDS011;11095;48.066;8.540;2022-12-07T03:26:21;20.38;;;10.43;;
21860;SDS011;11095;48.066;8.540;2022-12-07T03:28:55;17.23;;;9.80;;
21860;SDS011;11095;48.066;8.540;2022-12-07T03:31:28;15.70;;;8.85;;
21860;SDS011;11095;48.066;8.540;2022-12-07T03:36:50;15.25;;;9.07;;
21860;SDS011;11095;48.066;8.540;2022-12-07T03:39:28;15.30;;;8.70;;
21860;SDS011;11095;48.066;8.540;2022-12-07T03:41:58;17.55;;;8.90;;
21860;SDS011;11095;48.066;8.540;2022-12-07T03:44:26;13.75;;;8.13;;
21860;SDS011;11095;48.066;8.540;2022-12-07T03:47:03;14.15;;;8.32;;
21860;SDS011;11095;48.066;8.540;2022-12-07T03:49:57;13.57;;;7.97;;
21860;SDS011;11095;48.066;8.540;2022-12-07T03:52:44;14.32;;;7.93;;
21860;SDS011;11095;48.066;8.540;2022-12-07T03:55:20;13.73;;;8.18;;
21860;SDS011;11095;48.066;8.540;2022-12-07T03:57:52;12.55;;;7.90;;
21860;SDS011;11095;48.066;8.540;2022-12-07T04:00:22;12.10;;;7.47;;
21860;SDS011;11095;48.066;8.540;2022-12-07T04:02:48;14.60;;;8.23;;
21860;SDS011;11095;48.066;8.540;2022-12-07T04:05:17;11.88;;;7.15;;
21860;SDS011;11095;48.066;8.540;2022-12-07T04:07:43;11.80;;;7.22;;
21860;SDS011;11095;48.066;8.540;2022-12-07T04:10:09;11.95;;;7.03;;
21860;SDS011;11095;48.066;8.540;2022-12-07T04:12:35;9.90;;;6.82;;
21860;SDS011;11095;48.066;8.540;2022-12-07T04:15:01;9.90;;;6.60;;
21860;SDS011;11095;48.066;8.540;2022-12-07T04:17:27;10.35;;;6.78;;
21860;SDS011;11095;48.066;8.540;2022-12-07T04:19:52;11.30;;;6.93;;
21860;SDS011;11095;48.066;8.540;2022-12-07T04:22:18;10.93;;;6.70;;
21860;SDS011;11095;48.066;8.540;2022-12-07T04:24:43;11.75;;;7.22;;
21860;SDS011;11095;48.066;8.540;2022-12-07T04:27:09;11.85;;;6.85;;
21860;SDS011;11095;48.066;8.540;2022-12-07T04:29:35;10.38;;;6.72;;
21860;SDS011;11095;48.066;8.540;2022-12-07T04:32:00;12.15;;;7.28;;
21860;SDS011;11095;48.066;8.540;2022-12-07T04:34:26;19.20;;;9.95;;
21860;SDS011;11095;48.066;8.540;2022-12-07T04:36:52;20.55;;;10.90;;
21860;SDS011;11095;48.066;8.540;2022-12-07T04:39:38;13.80;;;8.02;;
21860;SDS011;11095;48.066;8.540;2022-12-07T04:42:03;11.00;;;6.90;;
21860;SDS011;11095;48.066;8.540;2022-12-07T04:44:29;12.27;;;7.40;;
21860;SDS011;11095;48.066;8.540;2022-12-07T04:46:55;10.95;;;6.72;;
21860;SDS011;11095;48.066;8.540;2022-12-07T04:49:22;11.82;;;6.90;;
21860;SDS011;11095;48.066;8.540;2022-12-07T04:51:49;9.95;;;6.55;;
21860;SDS011;11095;48.066;8.540;2022-12-07T04:54:15;11.98;;;7.13;;
21860;SDS011;11095;48.066;8.540;2022-12-07T04:56:41;10.57;;;6.38;;
21860;SDS011;11095;48.066;8.540;2022-12-07T04:59:09;11.70;;;6.93;;
21860;SDS011;11095;48.066;8.540;2022-12-07T05:01:35;12.63;;;7.68;;
21860;SDS011;11095;48.066;8.540;2022-12-07T05:04:01;12.23;;;6.90;;
21860;SDS011;11095;48.066;8.540;2022-12-07T05:06:28;13.88;;;7.20;;
21860;SDS011;11095;48.066;8.540;2022-12-07T05:08:53;10.15;;;6.20;;
21860;SDS011;11095;48.066;8.540;2022-12-07T05:11:19;10.25;;;6.63;;
21860;SDS011;11095;48.066;8.540;2022-12-07T05:14:04;8.73;;;5.88;;
21860;SDS011;11095;48.066;8.540;2022-12-07T05:16:30;8.90;;;6.20;;
21860;SDS011;11095;48.066;8.540;2022-12-07T05:18:56;9.32;;;6.45;;
21860;SDS011;11095;48.066;8.540;2022-12-07T05:21:22;10.65;;;6.55;;
21860;SDS011;11095;48.066;8.540;2022-12-07T05:23:48;11.13;;;6.80;;
21860;SDS011;11095;48.066;8.540;2022-12-07T05:26:14;9.70;;;6.78;;
21860;SDS011;11095;48.066;8.540;2022-12-07T05:28:39;9.25;;;6.60;;
21860;SDS011;11095;48.066;8.540;2022-12-07T05:31:05;9.70;;;6.70;;
21860;SDS011;11095;48.066;8.540;2022-12-07T05:33:31;9.52;;;6.25;;
21860;SDS011;11095;48.066;8.540;2022-12-07T05:35:57;8.98;;;6.40;;
21860;SDS011;11095;48.066;8.540;2022-12-07T05:38:22;8.60;;;6.40;;
21860;SDS011;11095;48.066;8.540;2022-12-07T05:40:48;9.38;;;6.05;;
21860;SDS011;11095;48.066;8.540;2022-12-07T05:43:14;10.02;;;6.63;;
21860;SDS011;11095;48.066;8.540;2022-12-07T05:45:39;10.32;;;6.88;;
21860;SDS011;11095;48.066;8.540;2022-12-07T05:48:05;12.30;;;7.30;;
21860;SDS011;11095;48.066;8.540;2022-12-07T05:50:31;12.07;;;7.75;;
21860;SDS011;11095;48.066;8.540;2022-12-07T05:52:56;10.98;;;7.40;;
21860;SDS011;11095;48.066;8.540;2022-12-07T05:55:22;10.70;;;7.13;;
21860;SDS011;11095;48.066;8.540;2022-12-07T05:57:47;10.95;;;7.18;;
21860;SDS011;11095;48.066;8.540;2022-12-07T06:00:32;11.50;;;7.57;;
21860;SDS011;11095;48.066;8.540;2022-12-07T06:02:58;9.75;;;7.05;;
21860;SDS011;11095;48.066;8.540;2022-12-07T06:05:23;10.82;;;7.20;;
21860;SDS011;11095;48.066;8.540;2022-12-07T06:07:49;11.35;;;7.85;;
21860;SDS011;11095;48.066;8.540;2022-12-07T06:10:15;12.30;;;8.02;;
21860;SDS011;11095;48.066;8.540;2022-12-07T06:12:40;15.05;;;8.85;;
21860;SDS011;11095;48.066;8.540;2022-12-07T06:15:08;13.05;;;8.35;;
21860;SDS011;11095;48.066;8.540;2022-12-07T06:17:35;13.13;;;8.50;;
21860;SDS011;11095;48.066;8.540;2022-12-07T06:20:01;12.55;;;8.05;;
21860;SDS011;11095;48.066;8.540;2022-12-07T06:22:26;14.27;;;9.13;;
21860;SDS011;11095;48.066;8.540;2022-12-07T06:24:53;13.73;;;8.68;;
21860;SDS011;11095;48.066;8.540;2022-12-07T06:27:18;14.77;;;9.20;;
21860;SDS011;11095;48.066;8.540;2022-12-07T06:29:44;12.68;;;8.65;;
21860;SDS011;11095;48.066;8.540;2022-12-07T06:32:10;14.00;;;9.18;;
21860;SDS011;11095;48.066;8.540;2022-12-07T06:34:36;13.25;;;8.85;;
21860;SDS011;11095;48.066;8.540;2022-12-07T06:37:02;12.10;;;8.35;;
21860;SDS011;11095;48.066;8.540;2022-12-07T06:39:28;13.60;;;8.82;;
21860;SDS011;11095;48.066;8.540;2022-12-07T06:41:54;13.30;;;8.98;;
21860;SDS011;11095;48.066;8.540;2022-12-07T06:44:20;11.25;;;7.72;;
21860;SDS011;11095;48.066;8.540;2022-12-07T06:46:47;10.60;;;7.05;;
21860;SDS011;11095;48.066;8.540;2022-12-07T06:49:13;12.57;;;8.07;;
21860;SDS011;11095;48.066;8.540;2022-12-07T06:51:39;11.65;;;7.68;;
21860;SDS011;11095;48.066;8.540;2022-12-07T06:54:09;9.98;;;6.90;;
21860;SDS011;11095;48.066;8.540;2022-12-07T06:56:36;10.93;;;7.20;;
21860;SDS011;11095;48.066;8.540;2022-12-07T06:59:02;11.90;;;8.20;;
21860;SDS011;11095;48.066;8.540;2022-12-07T07:01:30;12.50;;;7.95;;
21860;SDS011;11095;48.066;8.540;2022-12-07T07:03:56;14.00;;;9.15;;
21860;SDS011;11095;48.066;8.540;2022-12-07T07:06:21;11.38;;;7.90;;
21860;SDS011;11095;48.066;8.540;2022-12-07T07:08:47;11.50;;;7.90;;
21860;SDS011;11095;48.066;8.540;2022-12-07T07:11:12;11.55;;;7.40;;
21860;SDS011;11095;48.066;8.540;2022-12-07T07:13:38;11.75;;;7.82;;
21860;SDS011;11095;48.066;8.540;2022-12-07T07:16:04;12.15;;;8.23;;
21860;SDS011;11095;48.066;8.540;2022-12-07T07:18:30;14.07;;;9.13;;
21860;SDS011;11095;48.066;8.540;2022-12-07T07:20:56;14.07;;;8.35;;
21860;SDS011;11095;48.066;8.540;2022-12-07T07:23:22;14.02;;;8.65;;
21860;SDS011;11095;48.066;8.540;2022-12-07T07:25:48;14.43;;;9.30;;
21860;SDS011;11095;48.066;8.540;2022-12-07T07:28:14;17.17;;;9.70;;
21860;SDS011;11095;48.066;8.540;2022-12-07T07:30:40;13.45;;;8.60;;
21860;SDS011;11095;48.066;8.540;2022-12-07T07:33:06;16.15;;;9.98;;
21860;SDS011;11095;48.066;8.540;2022-12-07T07:35:32;19.02;;;10.95;;
21860;SDS011;11095;48.066;8.540;2022-12-07T07:37:58;16.80;;;10.55;;
21860;SDS011;11095;48.066;8.540;2022-12-07T07:40:25;17.90;;;11.00;;
21860;SDS011;11095;48.066;8.540;2022-12-07T07:42:52;20.00;;;11.90;;
21860;SDS011;11095;48.066;8.540;2022-12-07T07:45:21;27.13;;;15.15;;
21860;SDS011;11095;48.066;8.540;2022-12-07T07:50:14;20.58;;;12.20;;
21860;SDS011;11095;48.066;8.540;2022-12-07T07:52:40;23.77;;;13.30;;
21860;SDS011;11095;48.066;8.540;2022-12-07T07:55:06;22.48;;;13.85;;
21860;SDS011;11095;48.066;8.540;2022-12-07T07:57:33;22.73;;;13.82;;
21860;SDS011;11095;48.066;8.540;2022-12-07T08:00:00;20.83;;;13.48;;
21860;SDS011;11095;48.066;8.540;2022-12-07T08:02:26;15.10;;;10.98;;
21860;SDS011;11095;48.066;8.540;2022-12-07T08:04:54;13.23;;;9.43;;
21860;SDS011;11095;48.066;8.540;2022-12-07T08:07:20;14.25;;;9.68;;
21860;SDS011;11095;48.066;8.540;2022-12-07T08:09:45;10.35;;;7.22;;
21860;SDS011;11095;48.066;8.540;2022-12-07T08:12:11;15.00;;;8.55;;
21860;SDS011;11095;48.066;8.540;2022-12-07T08:14:37;11.13;;;6.68;;
21860;SDS011;11095;48.066;8.540;2022-12-07T08:17:02;14.35;;;8.30;;
21860;SDS011;11095;48.066;8.540;2022-12-07T08:19:28;12.18;;;7.28;;
21860;SDS011;11095;48.066;8.540;2022-12-07T08:21:54;8.20;;;5.40;;
21860;SDS011;11095;48.066;8.540;2022-12-07T08:24:21;11.95;;;7.38;;
21860;SDS011;11095;48.066;8.540;2022-12-07T08:26:46;15.55;;;8.05;;
21860;SDS011;11095;48.066;8.540;2022-12-07T08:29:13;9.38;;;6.10;;
21860;SDS011;11095;48.066;8.540;2022-12-07T08:31:38;14.48;;;7.95;;
21860;SDS011;11095;48.066;8.540;2022-12-07T08:34:04;11.27;;;6.88;;
21860;SDS011;11095;48.066;8.540;2022-12-07T08:36:30;8.70;;;5.85;;
21860;SDS011;11095;48.066;8.540;2022-12-07T08:38:56;6.18;;;5.20;;
21860;SDS011;11095;48.066;8.540;2022-12-07T08:41:21;13.70;;;7.38;;
21860;SDS011;11095;48.066;8.540;2022-12-07T08:43:47;12.57;;;7.18;;
21860;SDS011;11095;48.066;8.540;2022-12-07T08:46:17;7.25;;;5.22;;
21860;SDS011;11095;48.066;8.540;2022-12-07T08:48:55;12.52;;;7.13;;
21860;SDS011;11095;48.066;8.540;2022-12-07T08:51:23;10.27;;;6.60;;
21860;SDS011;11095;48.066;8.540;2022-12-07T08:53:50;6.85;;;5.35;;
21860;SDS011;11095;48.066;8.540;2022-12-07T08:56:17;10.82;;;6.82;;
21860;SDS011;11095;48.066;8.540;2022-12-07T08:58:43;10.05;;;6.57;;
21860;SDS011;11095;48.066;8.540;2022-12-07T09:01:09;8.40;;;5.55;;
21860;SDS011;11095;48.066;8.540;2022-12-07T09:03:35;10.68;;;7.03;;
21860;SDS011;11095;48.066;8.540;2022-12-07T09:06:01;18.35;;;10.35;;
21860;SDS011;11095;48.066;8.540;2022-12-07T09:08:30;10.43;;;7.20;;
21860;SDS011;11095;48.066;8.540;2022-12-07T09:10:59;11.43;;;7.13;;
21860;SDS011;11095;48.066;8.540;2022-12-07T09:13:24;8.75;;;6.70;;
21860;SDS011;11095;48.066;8.540;2022-12-07T09:15:50;14.85;;;9.05;;
21860;SDS011;11095;48.066;8.540;2022-12-07T09:18:16;12.70;;;7.50;;
21860;SDS011;11095;48.066;8.540;2022-12-07T09:20:42;10.15;;;6.28;;
21860;SDS011;11095;48.066;8.540;2022-12-07T09:23:07;7.85;;;5.65;;
21860;SDS011;11095;48.066;8.540;2022-12-07T09:25:33;7.55;;;5.55;;
21860;SDS011;11095;48.066;8.540;2022-12-07T09:27:59;6.95;;;5.53;;
21860;SDS011;11095;48.066;8.540;2022-12-07T09:30:26;8.07;;;5.95;;
21860;SDS011;11095;48.066;8.540;2022-12-07T09:32:53;7.32;;;5.53;;
21860;SDS011;11095;48.066;8.540;2022-12-07T09:35:19;7.80;;;5.28;;
21860;SDS011;11095;48.066;8.540;2022-12-07T09:37:45;6.55;;;5.18;;
21860;SDS011;11095;48.066;8.540;2022-12-07T09:40:11;6.10;;;5.03;;
21860;SDS011;11095;48.066;8.540;2022-12-07T09:42:39;7.28;;;5.47;;
21860;SDS011;11095;48.066;8.540;2022-12-07T09:45:17;7.50;;;5.20;;
21860;SDS011;11095;48.066;8.540;2022-12-07T09:47:54;7.40;;;5.50;;
21860;SDS011;11095;48.066;8.540;2022-12-07T09:50:21;7.55;;;5.57;;
21860;SDS011;11095;48.066;8.540;2022-12-07T09:52:49;6.88;;;5.20;;
21860;SDS011;11095;48.066;8.540;2022-12-07T09:55:27;7.43;;;5.40;;
21860;SDS011;11095;48.066;8.540;2022-12-07T09:57:54;6.43;;;4.82;;
21860;SDS011;11095;48.066;8.540;2022-12-07T10:00:22;7.00;;;5.03;;
21860;SDS011;11095;48.066;8.540;2022-12-07T10:05:32;8.63;;;6.25;;
21860;SDS011;11095;48.066;8.540;2022-12-07T10:08:03;8.02;;;5.90;;
21860;SDS011;11095;48.066;8.540;2022-12-07T10:10:31;8.23;;;5.80;;
21860;SDS011;11095;48.066;8.540;2022-12-07T10:12:59;8.35;;;5.95;;
21860;SDS011;11095;48.066;8.540;2022-12-07T10:21:08;9.85;;;6.32;;
21860;SDS011;11095;48.066;8.540;2022-12-07T10:24:01;10.20;;;6.65;;
21860;SDS011;11095;48.066;8.540;2022-12-07T10:26:30;9.07;;;6.05;;
21860;SDS011;11095;48.066;8.540;2022-12-07T10:28:58;9.95;;;6.50;;
21860;SDS011;11095;48.066;8.540;2022-12-07T10:31:26;9.15;;;6.03;;
21860;SDS011;11095;48.066;8.540;2022-12-07T10:33:54;4.53;;;3.50;;
21860;SDS011;11095;48.066;8.540;2022-12-07T10:36:42;7.03;;;4.28;;
21860;SDS011;11095;48.066;8.540;2022-12-07T10:39:40;7.15;;;4.70;;
21860;SDS011;11095;48.066;8.540;2022-12-07T10:42:09;5.63;;;3.67;;
21860;SDS011;11095;48.066;8.540;2022-12-07T10:44:40;6.05;;;3.90;;
21860;SDS011;11095;48.066;8.540;2022-12-07T10:57:59;3.95;;;3.08;;
21860;SDS011;11095;48.066;8.540;2022-12-07T11:01:00;3.88;;;2.70;;
21860;SDS011;11095;48.066;8.540;2022-12-07T11:03:41;3.78;;;2.58;;
21860;SDS011;11095;48.066;8.540;2022-12-07T11:14:28;5.55;;;2.83;;
21860;SDS011;11095;48.066;8.540;2022-12-07T11:17:00;5.88;;;3.42;;
21860;SDS011;11095;48.066;8.540;2022-12-07T11:19:39;5.55;;;3.47;;
21860;SDS011;11095;48.066;8.540;2022-12-07T11:25:00;5.68;;;3.67;;
21860;SDS011;11095;48.066;8.540;2022-12-07T11:30:47;4.43;;;3.33;;
21860;SDS011;11095;48.066;8.540;2022-12-07T11:35:48;7.57;;;4.22;;
21860;SDS011;11095;48.066;8.540;2022-12-07T11:38:20;10.07;;;4.72;;
21860;SDS011;11095;48.066;8.540;2022-12-07T11:41:08;5.22;;;3.25;;
21860;SDS011;11095;48.066;8.540;2022-12-07T11:43:50;5.15;;;3.30;;
21860;SDS011;11095;48.066;8.540;2022-12-07T11:46:22;5.28;;;2.50;;
21860;SDS011;11095;48.066;8.540;2022-12-07T11:49:02;4.85;;;2.88;;
21860;SDS011;11095;48.066;8.540;2022-12-07T11:51:49;6.03;;;3.53;;
21860;SDS011;11095;48.066;8.540;2022-12-07T11:54:19;3.65;;;2.70;;
21860;SDS011;11095;48.066;8.540;2022-12-07T11:56:51;2.90;;;2.30;;
21860;SDS011;11095;48.066;8.540;2022-12-07T12:01:56;4.38;;;2.60;;
21860;SDS011;11095;48.066;8.540;2022-12-07T12:04:51;4.22;;;2.50;;
21860;SDS011;11095;48.066;8.540;2022-12-07T12:07:31;5.00;;;3.20;;
21860;SDS011;11095;48.066;8.540;2022-12-07T12:10:04;4.30;;;2.90;;
21860;SDS011;11095;48.066;8.540;2022-12-07T12:12:48;2.88;;;2.15;;
21860;SDS011;11095;48.066;8.540;2022-12-07T12:18:11;4.50;;;2.97;;
21860;SDS011;11095;48.066;8.540;2022-12-07T12:26:06;4.75;;;2.90;;
21860;SDS011;11095;48.066;8.540;2022-12-07T12:28:50;6.60;;;3.55;;
21860;SDS011;11095;48.066;8.540;2022-12-07T12:31:31;6.28;;;2.90;;
21860;SDS011;11095;48.066;8.540;2022-12-07T12:42:46;5.07;;;2.70;;
21860;SDS011;11095;48.066;8.540;2022-12-07T12:45:22;3.60;;;2.50;;
21860;SDS011;11095;48.066;8.540;2022-12-07T12:48:02;3.10;;;2.30;;
21860;SDS011;11095;48.066;8.540;2022-12-07T12:50:47;4.05;;;2.65;;
21860;SDS011;11095;48.066;8.540;2022-12-07T12:53:23;3.22;;;2.30;;
21860;SDS011;11095;48.066;8.540;2022-12-07T12:58:41;3.58;;;2.20;;
21860;SDS011;11095;48.066;8.540;2022-12-07T13:07:06;3.97;;;2.22;;
21860;SDS011;11095;48.066;8.540;2022-12-07T13:09:35;4.35;;;2.60;;
21860;SDS011;11095;48.066;8.540;2022-12-07T13:12:11;4.57;;;2.30;;
21860;SDS011;11095;48.066;8.540;2022-12-07T13:20:05;3.40;;;2.50;;
21860;SDS011;11095;48.066;8.540;2022-12-07T13:25:09;3.92;;;2.40;;
21860;SDS011;11095;48.066;8.540;2022-12-07T13:27:43;5.70;;;3.00;;
21860;SDS011;11095;48.066;8.540;2022-12-07T13:30:17;4.90;;;2.72;;
21860;SDS011;11095;48.066;8.540;2022-12-07T13:32:55;4.03;;;2.65;;
21860;SDS011;11095;48.066;8.540;2022-12-07T13:37:55;5.93;;;2.60;;
21860;SDS011;11095;48.066;8.540;2022-12-07T13:40:21;4.38;;;2.40;;
21860;SDS011;11095;48.066;8.540;2022-12-07T13:42:48;4.78;;;2.88;;
21860;SDS011;11095;48.066;8.540;2022-12-07T13:45:28;3.40;;;2.42;;
21860;SDS011;11095;48.066;8.540;2022-12-07T13:48:24;4.13;;;2.55;;
21860;SDS011;11095;48.066;8.540;2022-12-07T13:50:53;5.78;;;3.15;;
21860;SDS011;11095;48.066;8.540;2022-12-07T13:53:21;9.75;;;5.10;;
21860;SDS011;11095;48.066;8.540;2022-12-07T13:55:47;5.80;;;3.20;;
21860;SDS011;11095;48.066;8.540;2022-12-07T13:58:13;5.60;;;3.05;;
21860;SDS011;11095;48.066;8.540;2022-12-07T14:00:39;5.88;;;3.33;;
21860;SDS011;11095;48.066;8.540;2022-12-07T14:05:38;5.18;;;2.90;;
21860;SDS011;11095;48.066;8.540;2022-12-07T14:13:37;11.93;;;5.43;;
21860;SDS011;11095;48.066;8.540;2022-12-07T14:16:05;5.35;;;3.40;;
21860;SDS011;11095;48.066;8.540;2022-12-07T14:18:50;4.50;;;2.80;;
21860;SDS011;11095;48.066;8.540;2022-12-07T14:21:16;2.97;;;2.10;;
21860;SDS011;11095;48.066;8.540;2022-12-07T14:26:48;4.75;;;2.30;;
21860;SDS011;11095;48.066;8.540;2022-12-07T14:29:22;2.97;;;2.17;;
21860;SDS011;11095;48.066;8.540;2022-12-07T14:31:48;3.22;;;2.40;;
21860;SDS011;11095;48.066;8.540;2022-12-07T14:34:13;5.63;;;3.28;;
21860;SDS011;11095;48.066;8.540;2022-12-07T14:36:39;5.43;;;2.88;;
21860;SDS011;11095;48.066;8.540;2022-12-07T14:39:05;7.18;;;3.60;;
21860;SDS011;11095;48.066;8.540;2022-12-07T14:41:30;4.78;;;2.55;;
21860;SDS011;11095;48.066;8.540;2022-12-07T14:44:15;3.50;;;1.80;;
21860;SDS011;11095;48.066;8.540;2022-12-07T14:46:41;2.45;;;1.92;;
21860;SDS011;11095;48.066;8.540;2022-12-07T14:49:06;4.53;;;2.60;;
21860;SDS011;11095;48.066;8.540;2022-12-07T14:51:32;5.03;;;3.20;;
21860;SDS011;11095;48.066;8.540;2022-12-07T14:54:00;3.40;;;2.08;;
21860;SDS011;11095;48.066;8.540;2022-12-07T14:56:27;2.92;;;2.20;;
21860;SDS011;11095;48.066;8.540;2022-12-07T14:58:53;3.85;;;2.40;;
21860;SDS011;11095;48.066;8.540;2022-12-07T15:01:18;7.05;;;3.13;;
21860;SDS011;11095;48.066;8.540;2022-12-07T15:03:44;4.70;;;2.90;;
21860;SDS011;11095;48.066;8.540;2022-12-07T15:06:10;5.20;;;2.88;;
21860;SDS011;11095;48.066;8.540;2022-12-07T15:08:39;7.15;;;3.70;;
21860;SDS011;11095;48.066;8.540;2022-12-07T15:11:05;4.00;;;2.70;;
21860;SDS011;11095;48.066;8.540;2022-12-07T15:13:31;4.00;;;2.72;;
21860;SDS011;11095;48.066;8.540;2022-12-07T15:16:16;3.22;;;2.38;;
21860;SDS011;11095;48.066;8.540;2022-12-07T15:18:44;3.78;;;2.50;;
21860;SDS011;11095;48.066;8.540;2022-12-07T15:21:12;4.68;;;2.42;;
21860;SDS011;11095;48.066;8.540;2022-12-07T15:23:40;3.08;;;2.17;;
21860;SDS011;11095;48.066;8.540;2022-12-07T15:26:05;3.40;;;2.30;;
21860;SDS011;11095;48.066;8.540;2022-12-07T15:28:32;5.05;;;2.67;;
21860;SDS011;11095;48.066;8.540;2022-12-07T15:30:58;3.13;;;2.15;;
21860;SDS011;11095;48.066;8.540;2022-12-07T15:33:24;7.25;;;4.38;;
21860;SDS011;11095;48.066;8.540;2022-12-07T15:35:50;3.70;;;2.70;;
21860;SDS011;11095;48.066;8.540;2022-12-07T15:38:15;4.53;;;3.00;;
21860;SDS011;11095;48.066;8.540;2022-12-07T15:40:41;4.88;;;3.30;;
21860;SDS011;11095;48.066;8.540;2022-12-07T15:43:08;4.82;;;3.70;;
21860;SDS011;11095;48.066;8.540;2022-12-07T15:45:54;5.55;;;3.22;;
21860;SDS011;11095;48.066;8.540;2022-12-07T15:48:20;5.72;;;3.67;;
21860;SDS011;11095;48.066;8.540;2022-12-07T15:50:45;6.47;;;3.20;;
21860;SDS011;11095;48.066;8.540;2022-12-07T15:53:11;4.00;;;2.50;;
21860;SDS011;11095;48.066;8.540;2022-12-07T15:55:39;3.53;;;2.40;;
21860;SDS011;11095;48.066;8.540;2022-12-07T15:58:05;4.55;;;3.03;;
21860;SDS011;11095;48.066;8.540;2022-12-07T16:00:31;4.65;;;3.15;;
21860;SDS011;11095;48.066;8.540;2022-12-07T16:02:57;4.50;;;3.00;;
21860;SDS011;11095;48.066;8.540;2022-12-07T16:05:23;5.20;;;3.30;;
21860;SDS011;11095;48.066;8.540;2022-12-07T16:07:48;5.10;;;3.33;;
21860;SDS011;11095;48.066;8.540;2022-12-07T16:10:14;6.03;;;3.58;;
21860;SDS011;11095;48.066;8.540;2022-12-07T16:12:41;6.30;;;4.10;;
21860;SDS011;11095;48.066;8.540;2022-12-07T16:15:07;5.18;;;3.55;;
21860;SDS011;11095;48.066;8.540;2022-12-07T16:17:33;6.68;;;4.00;;
21860;SDS011;11095;48.066;8.540;2022-12-07T16:19:59;9.02;;;3.97;;
21860;SDS011;11095;48.066;8.540;2022-12-07T16:22:24;6.28;;;3.75;;
21860;SDS011;11095;48.066;8.540;2022-12-07T16:24:50;6.32;;;4.20;;
21860;SDS011;11095;48.066;8.540;2022-12-07T16:27:15;4.95;;;3.65;;
21860;SDS011;11095;48.066;8.540;2022-12-07T16:29:41;6.05;;;4.07;;
21860;SDS011;11095;48.066;8.540;2022-12-07T16:32:07;6.15;;;4.13;;
21860;SDS011;11095;48.066;8.540;2022-12-07T16:34:32;7.70;;;4.30;;
21860;SDS011;11095;48.066;8.540;2022-12-07T16:36:58;6.32;;;4.20;;
21860;SDS011;11095;48.066;8.540;2022-12-07T16:39:24;7.55;;;4.63;;
21860;SDS011;11095;48.066;8.540;2022-12-07T16:41:49;7.10;;;4.57;;
21860;SDS011;11095;48.066;8.540;2022-12-07T16:44:15;7.70;;;5.05;;
21860;SDS011;11095;48.066;8.540;2022-12-07T16:46:41;6.85;;;4.85;;